Jenkins, Texas
Current Conditions -  °F | °C
As of 7:35 PM on Wednesday 26 Nov 2014 (Local Time) from KOSA Reporting Station
Clear Clear  
Wind Chill: 51°   Ceiling: Unl
Heat Index: 51°   Visibility: 10mi
Dew Point: 32°   Wind: 3mph
Humidity: 48%   Direction: 280°W
Pressure: 30.28"   Gusts: NA
Location:  33.0336°N, 94.7384°W
Report Text: KOSA 270135Z AUTO 28003KT 10SM CLR 11/00 A3028 RMK AO1 T01060000
Loading
Personal Weather Stations






























Interactive Weather Map New forecast layout! Learn more

10-Day Weather Forecast

Advertisements
Track Severe Weather on mobile